Time;durP1;ratioP1;P1;durP2;ratioP2;P2;SDS_P1;SDS_P2;PMS_P1;PMS_P2;Temp;Humidity;BMP_temperature;BMP_pressure;BME280_temperature;BME280_humidity;BME280_pressure;Samples;Min_cycle;Max_cycle;Signal;HPM_P1;HPM_P2
2023/02/10 00:01:59;;;;;;;66.38;29.38;;;;;;;1.87;100.00;103598.28;5276363;28;20019;-75
2023/02/10 00:04:30;;;;;;;74.95;31.67;;;;;;;1.77;100.00;103588.84;5272924;28;20094;-76
2023/02/10 00:07:00;;;;;;;72.22;31.60;;;;;;;1.70;100.00;103598.72;5272892;28;20024;-75
2023/02/10 00:09:31;;;;;;;70.85;29.55;;;;;;;1.65;100.00;103597.97;5264701;28;20032;-75
2023/02/10 00:12:02;;;;;;;73.30;31.92;;;;;;;1.60;100.00;103601.66;5266068;28;20024;-76
2023/02/10 00:14:32;;;;;;;79.78;35.30;;;;;;;1.53;100.00;103603.63;5286176;28;20019;-76
2023/02/10 00:17:03;;;;;;;66.70;29.77;;;;;;;1.48;100.00;103606.38;5283961;28;20392;-75
2023/02/10 00:19:34;;;;;;;83.28;32.10;;;;;;;1.43;100.00;103600.34;5246467;28;20023;-75
2023/02/10 00:22:04;;;;;;;79.32;31.88;;;;;;;1.34;100.00;103603.22;5278516;28;20465;-76
2023/02/10 00:24:35;;;;;;;74.95;32.50;;;;;;;1.25;100.00;103601.66;5265325;28;20035;-75
2023/02/10 00:27:05;;;;;;;85.07;33.40;;;;;;;1.20;100.00;103598.28;5278082;28;20491;-75
2023/02/10 00:29:36;;;;;;;86.93;33.50;;;;;;;1.20;100.00;103600.91;5264629;28;20472;-75
2023/02/10 00:32:06;;;;;;;85.65;32.47;;;;;;;1.21;100.00;103602.69;5283917;28;20499;-76
2023/02/10 00:34:37;;;;;;;89.43;37.42;;;;;;;1.22;100.00;103609.69;5272568;28;20032;-75
2023/02/10 00:37:07;;;;;;;75.43;33.53;;;;;;;1.20;100.00;103608.84;5264517;28;20032;-75
2023/02/10 00:39:38;;;;;;;78.20;32.90;;;;;;;1.20;100.00;103606.19;5278223;28;20446;-75
2023/02/10 00:42:08;;;;;;;77.70;32.65;;;;;;;1.24;100.00;103610.50;5264774;28;20038;-75
2023/02/10 00:44:38;;;;;;;83.60;33.60;;;;;;;1.38;100.00;103610.16;5277884;28;20110;-75
2023/02/10 00:47:09;;;;;;;80.43;33.08;;;;;;;1.51;100.00;103616.03;5264684;28;20024;-75
2023/02/10 00:49:39;;;;;;;73.00;30.98;;;;;;;1.56;100.00;103614.13;5264369;28;20016;-75
2023/02/10 00:52:10;;;;;;;81.40;32.20;;;;;;;1.56;100.00;103611.47;5264646;28;20530;-75
2023/02/10 00:54:40;;;;;;;77.57;31.83;;;;;;;1.59;100.00;103607.88;5269427;28;20026;-75
2023/02/10 00:57:11;;;;;;;71.70;31.55;;;;;;;1.64;100.00;103605.97;5273607;28;20453;-76
2023/02/10 00:59:42;;;;;;;77.30;31.13;;;;;;;1.65;100.00;103613.00;5264166;28;20027;-75
2023/02/10 01:02:12;;;;;;;78.20;31.77;;;;;;;1.67;100.00;103611.19;5277723;28;20110;-75
2023/02/10 01:04:42;;;;;;;78.25;33.85;;;;;;;1.69;100.00;103612.88;5267555;28;20051;-75
2023/02/10 01:07:13;;;;;;;88.55;34.70;;;;;;;1.70;100.00;103611.09;5270465;28;20085;-75
2023/02/10 01:09:43;;;;;;;83.57;33.58;;;;;;;1.66;100.00;103612.97;5265735;28;20119;-75
2023/02/10 01:12:14;;;;;;;75.18;30.65;;;;;;;1.57;100.00;103620.28;5268646;28;20107;-75
2023/02/10 01:14:44;;;;;;;75.30;29.98;;;;;;;1.42;100.00;103616.25;5278389;28;20388;-75
2023/02/10 01:17:15;;;;;;;74.28;31.70;;;;;;;1.32;100.00;103617.41;5254497;28;20027;-75
2023/02/10 01:19:47;;;;;;;80.30;34.53;;;;;;;1.27;100.00;103622.81;5268530;28;20020;-75
2023/02/10 01:22:18;;;;;;;92.97;33.95;;;;;;;1.25;100.00;103630.75;5268217;28;20036;-76
2023/02/10 01:24:48;;;;;;;87.55;33.10;;;;;;;1.26;100.00;103632.53;5280667;28;20395;-75
2023/02/10 01:27:19;;;;;;;82.70;33.72;;;;;;;1.26;100.00;103636.94;5269728;28;20047;-75
2023/02/10 01:29:49;;;;;;;92.03;35.95;;;;;;;1.23;100.00;103637.00;5268428;28;20103;-75
2023/02/10 01:32:20;;;;;;;84.75;34.08;;;;;;;1.26;100.00;103642.25;5282255;28;20020;-75
2023/02/10 01:34:50;;;;;;;84.80;33.65;;;;;;;1.24;100.00;103644.03;5282317;28;20028;-76
2023/02/10 01:37:21;;;;;;;80.70;33.63;;;;;;;1.22;100.00;103646.72;5280786;28;20043;-75
2023/02/10 01:39:51;;;;;;;73.88;33.53;;;;;;;1.22;100.00;103641.44;5270560;28;20031;-76
2023/02/10 01:42:22;;;;;;;77.50;33.38;;;;;;;1.19;100.00;103646.78;5261477;28;20024;-76
2023/02/10 01:44:53;;;;;;;79.20;33.85;;;;;;;1.21;100.00;103649.41;5281996;28;20031;-76
2023/02/10 01:47:25;;;;;;;77.13;31.80;;;;;;;1.16;100.00;103652.16;5268054;28;20548;-75
2023/02/10 01:49:55;;;;;;;87.20;34.35;;;;;;;1.04;100.00;103658.59;5282075;28;20392;-76
2023/02/10 01:52:29;;;;;;;72.15;30.38;;;;;;;0.93;100.00;103662.41;5280258;28;20069;-75
2023/02/10 01:55:04;;;;;;;86.30;34.60;;;;;;;0.85;100.00;103659.91;5269176;28;20111;-75
2023/02/10 01:57:38;;;;;;;100.63;36.72;;;;;;;0.82;100.00;103659.13;5267466;28;20053;-76
2023/02/10 02:00:10;;;;;;;92.05;33.60;;;;;;;0.86;100.00;103668.75;5276266;28;20031;-76
2023/02/10 02:02:43;;;;;;;89.25;34.45;;;;;;;0.87;100.00;103662.56;5277849;28;20028;-75
2023/02/10 02:05:34;;;;;;;88.60;36.08;;;;;;;0.88;100.00;103666.94;5277912;28;20081;-75
2023/02/10 02:08:30;;;;;;;99.20;38.50;;;;;;;0.89;100.00;103663.38;5267503;28;20028;-76
2023/02/10 02:11:33;;;;;;;97.13;36.22;;;;;;;0.96;100.00;103668.50;5252962;28;20028;-76
2023/02/10 02:14:38;;;;;;;112.65;40.65;;;;;;;1.03;100.00;103667.44;5267703;28;20115;-75
2023/02/10 02:17:32;;;;;;;108.63;41.08;;;;;;;1.10;100.00;103675.22;5267340;28;20569;-75
2023/02/10 02:20:40;;;;;;;113.90;44.17;;;;;;;1.11;100.00;103664.63;5280349;28;20472;-75
2023/02/10 02:23:48;;;;;;;118.40;42.20;;;;;;;1.22;100.00;103661.72;5288982;28;20098;-76
2023/02/10 02:26:52;;;;;;;124.13;45.28;;;;;;;1.52;100.00;103642.44;5267439;28;20532;-76
2023/02/10 02:29:51;;;;;;;119.90;43.97;;;;;;;1.57;100.00;103636.16;5277467;28;20481;-75
2023/02/10 02:32:26;;;;;;;126.65;44.53;;;;;;;1.55;100.00;103631.75;5267680;28;20530;-75
2023/02/10 02:35:02;;;;;;;116.05;42.95;;;;;;;1.56;100.00;103645.88;5267163;28;20048;-75
2023/02/10 02:37:37;;;;;;;121.78;44.13;;;;;;;1.53;100.00;103625.66;5267900;28;20077;-76
2023/02/10 02:40:08;;;;;;;;;;;;;;;1.52;100.00;103634.50;5285779;28;20058;-77
2023/02/10 02:42:39;;;;;;;124.13;43.35;;;;;;;1.57;100.00;103637.03;5276723;28;20014;-75
2023/02/10 02:45:28;;;;;;;123.95;44.63;;;;;;;1.68;100.00;103629.66;5246237;28;20047;-76
2023/02/10 02:48:23;;;;;;;123.35;47.72;;;;;;;1.77;100.00;103642.66;5266841;28;20027;-75
2023/02/10 02:51:01;;;;;;;127.10;44.08;;;;;;;1.86;100.00;103645.94;5266984;28;20039;-75
2023/02/10 02:53:33;;;;;;;109.80;41.45;;;;;;;1.93;100.00;103647.53;5275032;28;20523;-76
2023/02/10 02:56:09;;;;;;;113.20;42.30;;;;;;;1.99;100.00;103639.41;5267583;28;20327;-75
2023/02/10 02:58:50;;;;;;;114.53;40.40;;;;;;;2.05;100.00;103641.91;5268419;28;20028;-76
2023/02/10 03:01:30;;;;;;;104.07;40.05;;;;;;;2.10;100.00;103647.94;5266590;28;20016;-75
2023/02/10 03:04:01;;;;;;;105.82;40.72;;;;;;;2.13;100.00;103653.16;5266811;28;20034;-76
2023/02/10 03:06:32;;;;;;;110.85;39.40;;;;;;;2.15;100.00;103651.31;5266480;28;20024;-76
2023/02/10 03:09:02;;;;;;;102.35;39.95;;;;;;;2.17;100.00;103644.22;5280607;28;20566;-76
2023/02/10 03:11:33;;;;;;;104.88;38.88;;;;;;;2.19;100.00;103650.31;5266577;28;20016;-76
2023/02/10 03:14:03;;;;;;;107.40;40.47;;;;;;;2.20;100.00;103654.69;5266914;28;20524;-75
2023/02/10 03:16:34;;;;;;;110.93;40.25;;;;;;;2.20;100.00;103651.19;5277853;28;20032;-76
2023/02/10 03:19:05;;;;;;;102.78;39.63;;;;;;;2.23;100.00;103653.75;5268698;28;20031;-76
2023/02/10 03:21:35;;;;;;;110.57;41.00;;;;;;;2.30;100.00;103658.81;5266482;28;20488;-76
2023/02/10 03:24:08;;;;;;;111.68;39.75;;;;;;;2.35;100.00;103658.69;5273069;28;20484;-75
2023/02/10 03:26:39;;;;;;;103.22;39.50;;;;;;;2.39;100.00;103659.47;5273170;28;20028;-76
2023/02/10 03:29:12;;;;;;;102.97;38.83;;;;;;;2.47;100.00;103663.66;5266209;28;20126;-76
2023/02/10 03:31:43;;;;;;;102.05;37.75;;;;;;;2.46;100.00;103656.63;5267898;28;20470;-76
2023/02/10 03:34:13;;;;;;;100.10;37.97;;;;;;;2.46;100.00;103669.88;5277426;28;20073;-76
2023/02/10 03:36:44;;;;;;;100.15;37.70;;;;;;;2.45;100.00;103654.84;5269291;28;20032;-76
2023/02/10 03:39:14;;;;;;;87.45;34.97;;;;;;;2.39;100.00;103655.06;5269064;28;20544;-77
2023/02/10 03:41:45;;;;;;;94.30;35.17;;;;;;;2.30;100.00;103658.81;5249913;28;20028;-76
2023/02/10 03:44:15;;;;;;;100.85;37.75;;;;;;;2.31;100.00;103667.66;5266013;28;20012;-77
2023/02/10 03:46:46;;;;;;;101.82;38.60;;;;;;;2.34;100.00;103665.78;5279261;28;20051;-76
2023/02/10 03:49:16;;;;;;;91.90;37.30;;;;;;;2.33;100.00;103671.13;5279628;28;20020;-76
2023/02/10 03:51:46;;;;;;;101.55;39.03;;;;;;;2.32;100.00;103674.69;5265626;28;20028;-76
2023/02/10 03:54:17;;;;;;;106.78;38.58;;;;;;;2.30;100.00;103671.19;5266011;28;20016;-75
2023/02/10 03:56:47;;;;;;;102.57;39.22;;;;;;;2.26;100.00;103672.19;5278081;28;20026;-76
2023/02/10 03:59:18;;;;;;;106.68;39.95;;;;;;;2.20;100.00;103673.25;5279915;28;20396;-76
2023/02/10 04:01:49;;;;;;;99.45;37.80;;;;;;;2.14;100.00;103669.91;5275137;28;20031;-76
2023/02/10 04:04:19;;;;;;;101.75;38.38;;;;;;;2.06;100.00;103678.09;5268551;28;20490;-75
2023/02/10 04:06:50;;;;;;;97.03;38.15;;;;;;;1.98;100.00;103678.28;5274278;28;20032;-76
2023/02/10 04:09:20;;;;;;;99.93;36.80;;;;;;;1.87;100.00;103675.06;5252458;28;20023;-75
2023/02/10 04:11:51;;;;;;;105.50;36.67;;;;;;;1.75;100.00;103684.16;5273798;28;20051;-75
2023/02/10 04:14:21;;;;;;;97.28;36.78;;;;;;;1.62;100.00;103688.06;5272221;28;20193;-75
2023/02/10 04:16:52;;;;;;;93.53;37.95;;;;;;;1.50;100.00;103683.06;5285930;28;20019;-75
2023/02/10 04:19:22;;;;;;;96.95;38.65;;;;;;;1.36;100.00;103685.19;5286328;28;20027;-76
2023/02/10 04:21:53;;;;;;;106.72;38.65;;;;;;;1.21;100.00;103691.72;5270607;28;20024;-75
2023/02/10 04:24:23;;;;;;;95.85;35.95;;;;;;;1.06;100.00;103687.66;5274615;28;20016;-76
2023/02/10 04:26:54;;;;;;;109.38;38.45;;;;;;;0.93;100.00;103683.56;5253827;28;20039;-75
2023/02/10 04:29:24;;;;;;;101.78;38.72;;;;;;;0.79;100.00;103697.06;5286597;28;20043;-77
2023/02/10 04:31:55;;;;;;;109.90;39.28;;;;;;;0.67;100.00;103700.84;5267800;28;20028;-76
2023/02/10 04:34:25;;;;;;;113.32;40.60;;;;;;;0.54;100.00;103690.56;5265120;28;20469;-75
2023/02/10 04:36:56;;;;;;;113.03;42.80;;;;;;;0.43;100.00;103690.78;5264984;28;20122;-75
2023/02/10 04:39:26;;;;;;;129.88;44.80;;;;;;;0.35;100.00;103687.41;5265208;28;20074;-75
2023/02/10 04:41:57;;;;;;;134.50;46.28;;;;;;;0.28;100.00;103676.13;5278500;28;20031;-76
2023/02/10 04:44:27;;;;;;;133.90;46.70;;;;;;;0.21;100.00;103685.94;5264685;28;20034;-76
2023/02/10 04:46:58;;;;;;;119.93;42.83;;;;;;;0.13;100.00;103693.13;5272785;28;20046;-75
2023/02/10 04:49:28;;;;;;;152.63;49.92;;;;;;;0.09;100.00;103696.72;5266513;28;20022;-75
2023/02/10 04:51:59;;;;;;;156.77;51.03;;;;;;;0.06;100.00;103698.56;5247144;28;20051;-76
2023/02/10 04:54:29;;;;;;;151.55;48.55;;;;;;;0.03;100.00;103691.56;5229950;28;20056;-75
2023/02/10 04:57:00;;;;;;;136.27;46.88;;;;;;;0.01;100.00;103687.22;5264824;28;20032;-76
2023/02/10 04:59:30;;;;;;;142.27;45.28;;;;;;;-0.03;100.00;103687.28;5246733;28;20026;-75
2023/02/10 05:02:02;;;;;;;131.35;45.83;;;;;;;-0.06;100.00;103697.00;5264858;28;20021;-76
2023/02/10 05:04:33;;;;;;;126.57;43.08;;;;;;;-0.10;100.00;103695.31;5278202;28;20080;-75
2023/02/10 05:07:04;;;;;;;147.80;49.13;;;;;;;-0.11;100.00;103697.09;5246324;28;20424;-78
2023/02/10 05:09:35;;;;;;;158.00;47.97;;;;;;;-0.08;100.00;103693.53;5264550;28;20081;-75
2023/02/10 05:12:05;;;;;;;141.88;45.30;;;;;;;-0.16;100.00;103680.47;5265836;28;20036;-76
2023/02/10 05:14:36;;;;;;;147.82;45.35;;;;;;;-0.23;100.00;103686.78;5286200;28;20026;-75
2023/02/10 05:17:06;;;;;;;135.45;45.47;;;;;;;-0.31;100.00;103683.38;5251394;28;20036;-75
2023/02/10 05:19:37;;;;;;;141.43;43.88;;;;;;;-0.39;100.00;103693.22;5274297;28;20052;-75
2023/02/10 05:22:07;;;;;;;144.20;44.40;;;;;;;-0.46;100.00;103689.78;5268411;28;20076;-75
2023/02/10 05:24:38;;;;;;;120.13;40.70;;;;;;;-0.53;100.00;103693.44;5264829;28;20017;-77
2023/02/10 05:27:08;;;;;;;125.25;44.05;;;;;;;-0.59;100.00;103693.53;5277993;28;20110;-75
2023/02/10 05:29:39;;;;;;;137.10;43.10;;;;;;;-0.66;100.00;103689.25;5277162;28;20457;-75
2023/02/10 05:32:09;;;;;;;129.35;44.08;;;;;;;-0.75;100.00;103690.28;5265706;28;20020;-75
2023/02/10 05:34:40;;;;;;;134.20;43.75;;;;;;;-0.81;100.00;103682.44;5246789;28;20385;-76
2023/02/10 05:37:10;;;;;;;137.30;46.42;;;;;;;-0.87;100.00;103691.31;5271778;28;20468;-76
2023/02/10 05:39:41;;;;;;;135.80;42.40;;;;;;;-0.95;100.00;103682.69;5284169;28;20024;-75
2023/02/10 05:42:11;;;;;;;130.18;41.50;;;;;;;-0.99;100.00;103683.63;5264853;28;20028;-75
2023/02/10 05:44:42;;;;;;;144.80;44.63;;;;;;;-1.04;100.00;103688.06;5268035;28;20123;-78
2023/02/10 05:47:13;;;;;;;120.13;41.20;;;;;;;-1.09;100.00;103689.91;5267366;28;20026;-75
2023/02/10 05:49:43;;;;;;;134.00;42.42;;;;;;;-1.11;100.00;103686.41;5285697;28;20156;-77
2023/02/10 05:52:14;;;;;;;133.00;41.67;;;;;;;-1.15;100.00;103690.88;5255483;28;20040;-75
2023/02/10 05:54:44;;;;;;;129.80;42.58;;;;;;;-1.20;100.00;103681.28;5270250;28;20374;-76
2023/02/10 05:57:15;;;;;;;132.27;42.08;;;;;;;-1.22;100.00;103698.88;5275973;28;20114;-75
2023/02/10 05:59:45;;;;;;;141.68;43.10;;;;;;;-1.26;100.00;103698.03;5281875;28;20027;-75
2023/02/10 06:02:16;;;;;;;130.68;42.53;;;;;;;-1.30;100.00;103696.34;5247259;28;20081;-75
2023/02/10 06:04:46;;;;;;;141.68;43.42;;;;;;;-1.36;100.00;103697.28;5281765;28;20099;-74
2023/02/10 06:07:17;;;;;;;135.32;40.60;;;;;;;-1.42;100.00;103697.34;5281625;28;20104;-75
2023/02/10 06:09:47;;;;;;;140.38;40.40;;;;;;;-1.50;100.00;103693.09;5277004;28;20392;-75
2023/02/10 06:12:19;;;;;;;157.40;44.85;;;;;;;-1.57;100.00;103694.91;5289214;28;20027;-77
2023/02/10 06:14:49;;;;;;;214.77;51.28;;;;;;;-1.60;100.00;103697.59;5289229;28;20012;-75
2023/02/10 06:17:20;;;;;;;171.48;46.40;;;;;;;-1.62;100.00;103699.38;5289387;28;20031;-75
2023/02/10 06:19:50;;;;;;;144.07;42.90;;;;;;;-1.65;100.00;103695.03;5277764;28;20031;-75
2023/02/10 06:22:21;;;;;;;147.57;43.13;;;;;;;-1.57;100.00;103698.41;5267654;28;20039;-75
2023/02/10 06:24:51;;;;;;;140.00;43.67;;;;;;;-1.51;100.00;103700.09;5268384;28;20028;-75
2023/02/10 06:27:21;;;;;;;171.65;45.92;;;;;;;-1.51;100.00;103692.19;5281258;28;20020;-75
2023/02/10 06:29:52;;;;;;;144.50;43.88;;;;;;;-1.50;100.00;103693.97;5267502;28;20020;-76
2023/02/10 06:32:22;;;;;;;148.13;42.85;;;;;;;-1.55;100.00;103698.41;5276060;28;20372;-75
2023/02/10 06:34:53;;;;;;;137.77;41.25;;;;;;;-1.60;100.00;103702.88;5274659;28;20191;-75
2023/02/10 06:37:24;;;;;;;136.10;41.35;;;;;;;-1.68;100.00;103699.44;5288342;28;20020;-76
2023/02/10 06:39:54;;;;;;;139.38;40.13;;;;;;;-1.75;100.00;103700.41;5266782;28;20028;-75
2023/02/10 06:42:25;;;;;;;137.05;41.60;;;;;;;-1.79;100.00;103701.34;5278816;28;20031;-75
2023/02/10 06:44:55;;;;;;;144.70;41.35;;;;;;;-1.83;100.00;103706.63;5270000;28;20028;-78
2023/02/10 06:47:26;;;;;;;138.65;42.67;;;;;;;-1.87;100.00;103704.91;5261579;28;20080;-78
2023/02/10 06:49:57;;;;;;;157.38;44.58;;;;;;;-1.87;100.00;103704.03;5268411;28;20024;-74
2023/02/10 06:52:27;;;;;;;165.82;42.85;;;;;;;-1.90;100.00;103704.06;5249159;28;20028;-74
2023/02/10 06:54:58;;;;;;;209.30;49.42;;;;;;;-1.96;100.00;103702.38;5281219;28;20102;-74
2023/02/10 06:57:28;;;;;;;164.88;42.20;;;;;;;-1.99;100.00;103706.81;5266396;28;20055;-74
2023/02/10 06:59:59;;;;;;;572.88;60.45;;;;;;;-2.02;100.00;103706.81;5267088;28;20077;-73
2023/02/10 07:02:29;;;;;;;201.05;40.25;;;;;;;-2.06;100.00;103713.00;5270874;28;20020;-74
2023/02/10 07:05:00;;;;;;;378.58;47.05;;;;;;;-2.08;100.00;103710.38;5265391;28;20050;-73
2023/02/10 07:07:30;;;;;;;486.23;50.80;;;;;;;-2.10;100.00;103712.19;5264478;28;20463;-74
2023/02/10 07:10:01;;;;;;;102.57;33.53;;;;;;;-2.12;100.00;103713.94;5265486;28;20039;-74
2023/02/10 07:12:31;;;;;;;86.10;30.60;;;;;;;-2.10;100.00;103712.19;5283346;28;20332;-73
2023/02/10 07:15:02;;;;;;;117.32;36.47;;;;;;;-2.04;100.00;103720.00;5256363;28;20277;-73
2023/02/10 07:17:32;;;;;;;150.85;42.15;;;;;;;-1.99;100.00;103717.31;5278534;28;20027;-73
2023/02/10 07:20:04;;;;;;;149.38;42.08;;;;;;;-1.92;100.00;103711.97;5265154;28;20028;-74
2023/02/10 07:22:34;;;;;;;138.98;42.28;;;;;;;-1.86;100.00;103719.81;5278221;28;20031;-73
2023/02/10 07:25:05;;;;;;;134.15;42.70;;;;;;;-1.79;100.00;103725.88;5247268;28;20023;-73
2023/02/10 07:27:36;;;;;;;139.60;41.58;;;;;;;-1.74;100.00;103718.81;5246762;28;20028;-73
2023/02/10 07:30:06;;;;;;;134.82;43.60;;;;;;;-1.64;100.00;103733.63;5264822;28;20063;-75
2023/02/10 07:32:37;;;;;;;141.52;43.08;;;;;;;-1.55;100.00;103732.66;5235867;28;20400;-73
2023/02/10 07:35:09;;;;;;;113.43;38.05;;;;;;;-1.52;100.00;103727.31;5264443;28;20027;-73
2023/02/10 07:37:40;;;;;;;118.82;36.65;;;;;;;-1.51;100.00;103709.75;5276307;28;20384;-73
2023/02/10 07:40:10;;;;;;;178.40;44.03;;;;;;;-1.50;100.00;103722.94;5267121;28;20031;-73
2023/02/10 07:42:41;;;;;;;111.85;36.60;;;;;;;-1.42;100.00;103722.81;5264928;28;20385;-74
2023/02/10 07:45:11;;;;;;;130.63;42.17;;;;;;;-1.19;100.00;103733.09;5271805;28;20468;-73
2023/02/10 07:47:42;;;;;;;120.85;38.53;;;;;;;-1.15;100.00;103737.41;5284505;28;20028;-73
2023/02/10 07:50:12;;;;;;;131.48;38.97;;;;;;;-1.11;100.00;103732.06;5264723;28;20020;-73
2023/02/10 07:52:43;;;;;;;117.18;38.90;;;;;;;-0.98;100.00;103730.16;5266393;28;20165;-74
2023/02/10 07:55:14;;;;;;;129.32;40.97;;;;;;;-0.83;100.00;103734.34;5276320;28;20024;-74
2023/02/10 07:57:44;;;;;;;96.65;34.05;;;;;;;-0.63;100.00;103745.44;5277515;28;20043;-73
2023/02/10 08:00:15;;;;;;;91.18;35.67;;;;;;;-0.33;100.00;103746.72;5245812;28;20751;-73
2023/02/10 08:02:45;;;;;;;91.13;33.85;;;;;;;0.04;100.00;103750.50;5268453;28;20468;-73
2023/02/10 08:05:16;;;;;;;103.82;34.60;;;;;;;0.13;100.00;103753.84;5285280;28;20439;-73
2023/02/10 08:07:47;;;;;;;95.45;33.38;;;;;;;0.14;100.00;103763.50;5285239;28;20486;-73
2023/02/10 08:10:17;;;;;;;103.18;35.05;;;;;;;0.11;100.00;103768.88;5272386;28;20621;-73
2023/02/10 08:12:48;;;;;;;94.47;34.22;;;;;;;0.22;100.00;103772.19;5263650;28;20028;-73
2023/02/10 08:15:20;;;;;;;100.30;34.83;;;;;;;0.18;100.00;103766.97;5277832;28;20015;-74
2023/02/10 08:17:51;;;;;;;95.15;33.05;;;;;;;0.11;100.00;103762.72;5263856;28;20020;-74
2023/02/10 08:20:21;;;;;;;200.90;34.72;;;;;;;-0.04;100.00;103755.94;5277776;28;20023;-73
2023/02/10 08:22:55;;;;;;;99.22;34.47;;;;;;;-0.16;100.00;103751.72;5263843;28;20016;-73
2023/02/10 08:25:25;;;;;;;101.22;35.33;;;;;;;-0.03;100.00;103760.31;5263758;28;20024;-73
2023/02/10 08:27:56;;;;;;;102.00;36.75;;;;;;;0.20;100.00;103755.50;5274603;28;20047;-73
2023/02/10 08:30:26;;;;;;;134.98;44.03;;;;;;;0.55;100.00;103763.63;5284810;28;20024;-74
2023/02/10 08:32:57;;;;;;;122.88;41.35;;;;;;;1.00;100.00;103759.16;5284503;28;20102;-73
2023/02/10 08:35:27;;;;;;;132.77;44.47;;;;;;;1.44;100.00;103767.88;5278968;28;20023;-74
2023/02/10 08:37:58;;;;;;;125.88;43.42;;;;;;;1.85;100.00;103758.06;5263380;28;20018;-73
2023/02/10 08:40:28;;;;;;;118.20;41.90;;;;;;;2.13;100.00;103747.63;5270654;28;20074;-74
2023/02/10 08:42:59;;;;;;;108.55;38.60;;;;;;;2.46;100.00;103754.66;5270325;28;21105;-74
2023/02/10 08:45:29;;;;;;;101.63;40.95;;;;;;;2.78;100.00;103760.81;5263451;28;20039;-74
2023/02/10 08:48:00;;;;;;;100.40;39.22;;;;;;;3.07;100.00;103754.66;5278667;28;20020;-73
2023/02/10 08:50:31;;;;;;;101.60;37.53;;;;;;;3.32;100.00;103757.44;5274695;28;20039;-74
2023/02/10 08:53:01;;;;;;;98.63;41.00;;;;;;;3.50;100.00;103748.00;5276593;28;20043;-73
2023/02/10 08:55:32;;;;;;;94.65;38.55;;;;;;;3.61;100.00;103752.06;5274519;28;20131;-74
2023/02/10 08:58:03;;;;;;;94.07;38.90;;;;;;;3.83;100.00;103757.50;5247695;28;20016;-74
2023/02/10 09:00:34;;;;;;;99.80;39.50;;;;;;;3.88;100.00;103752.91;5275014;28;20477;-74
2023/02/10 09:03:04;;;;;;;94.10;38.90;;;;;;;4.09;100.00;103747.78;5264280;28;20095;-74
2023/02/10 09:05:36;;;;;;;93.85;39.15;;;;;;;4.43;100.00;103750.13;5264418;28;20034;-74
2023/02/10 09:08:08;;;;;;;96.40;40.63;;;;;;;4.67;100.00;103751.00;5275809;28;20020;-74
2023/02/10 09:10:39;;;;;;;97.20;40.20;;;;;;;4.71;100.00;103759.72;5261238;28;20020;-74
2023/02/10 09:13:10;;;;;;;87.63;38.42;;;;;;;4.84;100.00;103753.03;5273356;28;20032;-74
2023/02/10 09:15:42;;;;;;;87.10;37.97;;;;;;;5.19;100.00;103763.19;5263051;28;20031;-74
2023/02/10 09:18:12;;;;;;;88.32;40.63;;;;;;;5.26;100.00;103761.13;5274812;28;20047;-74
2023/02/10 09:20:43;;;;;;;89.25;39.40;;;;;;;5.53;100.00;103758.31;5264784;28;20066;-75
2023/02/10 09:23:13;;;;;;;89.85;39.13;;;;;;;5.22;100.00;103753.31;5276982;28;20456;-74
2023/02/10 09:25:52;;;;;;;97.80;40.83;;;;;;;5.27;100.00;103746.91;5277036;28;20027;-74
2023/02/10 09:28:23;;;;;;;91.85;39.40;;;;;;;5.23;100.00;103747.97;5268521;28;20051;-74
2023/02/10 09:30:54;;;;;;;91.78;38.78;;;;;;;5.17;100.00;103743.75;5264429;28;20028;-74
2023/02/10 09:33:24;;;;;;;92.35;40.20;;;;;;;4.85;100.00;103749.44;5280340;28;20026;-74
2023/02/10 09:35:55;;;;;;;99.88;39.67;;;;;;;4.69;100.00;103754.47;5258671;28;20411;-74
2023/02/10 09:38:28;;;;;;;91.57;40.35;;;;;;;4.53;100.00;103753.31;5270042;28;20050;-75
2023/02/10 09:40:58;;;;;;;98.45;41.95;;;;;;;4.41;100.00;103762.56;5266851;28;20028;-75
2023/02/10 09:44:07;;;;;;;111.47;42.47;;;;;;;4.34;100.00;103758.41;5280764;28;20375;-75
2023/02/10 09:46:38;;;;;;;97.30;39.85;;;;;;;4.63;100.00;103770.66;5280327;28;20028;-77
2023/02/10 09:49:28;;;;;;;90.80;39.75;;;;;;;4.79;100.00;103766.50;5249029;28;20032;-75
2023/02/10 09:52:23;;;;;;;90.15;38.17;;;;;;;4.93;100.00;103763.31;5266706;28;20138;-74
2023/02/10 09:54:55;;;;;;;91.38;39.17;;;;;;;5.37;100.00;103761.59;5266343;28;20085;-74
2023/02/10 09:57:49;;;;;;;94.22;39.85;;;;;;;5.69;100.00;103767.41;5266730;28;20040;-75
2023/02/10 10:00:41;;;;;;;89.35;39.33;;;;;;;5.92;100.00;103759.34;5266229;28;20024;-74
2023/02/10 10:03:17;;;;;;;87.10;39.85;;;;;;;6.31;100.00;103758.53;5274701;28;20063;-75
2023/02/10 10:05:53;;;;;;;;;;;;;;;6.77;100.00;103756.47;5285532;28;20523;-74
2023/02/10 10:09:01;;;;;;;91.43;38.50;;;;;;;6.93;100.00;103762.00;5266652;28;19912;-75
2023/02/10 10:11:49;;;;;;;97.35;40.55;;;;;;;6.84;100.00;103763.28;5265599;28;20043;-75
2023/02/10 10:14:22;;;;;;;91.18;40.00;;;;;;;7.00;100.00;103766.94;5266211;28;20452;-75
2023/02/10 10:17:06;;;;;;;95.25;40.83;;;;;;;6.69;100.00;103764.84;5261849;28;20122;-74
2023/02/10 10:19:43;;;;;;;93.38;41.22;;;;;;;6.87;100.00;103760.44;5286933;28;20081;-75
2023/02/10 10:22:53;;;;;;;95.50;39.95;;;;;;;6.65;100.00;103771.25;5287464;28;20377;-74
2023/02/10 10:25:57;;;;;;;94.40;40.22;;;;;;;6.88;100.00;103772.88;5269674;28;20024;-74
2023/02/10 10:28:49;;;;;;;91.13;40.28;;;;;;;7.12;100.00;103783.31;5266013;28;20036;-76
2023/02/10 10:31:29;;;;;;;96.40;39.17;;;;;;;7.30;100.00;103790.47;5265649;28;20028;-75
2023/02/10 10:34:11;;;;;;;98.50;42.17;;;;;;;6.93;100.00;103778.88;5266035;28;20110;-74
2023/02/10 10:36:58;;;;;;;96.35;37.95;;;;;;;6.96;100.00;103775.16;5260812;28;20028;-75
2023/02/10 10:39:49;;;;;;;93.68;40.25;;;;;;;6.81;100.00;103784.75;5266100;28;20055;-75
2023/02/10 10:42:26;;;;;;;99.72;40.08;;;;;;;6.75;100.00;103790.38;5265743;28;20094;-75
2023/02/10 10:45:06;;;;;;;97.32;40.90;;;;;;;6.84;100.00;103784.63;5284277;28;20046;-74
2023/02/10 10:47:43;;;;;;;111.43;42.72;;;;;;;6.67;100.00;103779.16;5272889;28;20059;-75
2023/02/10 10:50:17;;;;;;;91.63;41.70;;;;;;;6.70;100.00;103784.38;5274990;28;20028;-75
2023/02/10 10:52:52;;;;;;;107.07;42.70;;;;;;;6.66;100.00;103783.63;5272533;28;20110;-75
2023/02/10 10:55:27;;;;;;;108.97;43.17;;;;;;;6.82;100.00;103783.81;5286867;28;20031;-75
2023/02/10 10:58:01;;;;;;;113.55;42.92;;;;;;;7.12;100.00;103789.53;5254038;28;20235;-76
2023/02/10 11:00:31;;;;;;;106.93;42.63;;;;;;;7.08;100.00;103784.41;5274008;28;20020;-75
2023/02/10 11:03:05;;;;;;;105.30;43.03;;;;;;;6.98;100.00;103776.84;5273462;28;20020;-75
2023/02/10 11:05:37;;;;;;;115.68;42.65;;;;;;;6.96;100.00;103770.69;5272275;28;20024;-74
2023/02/10 11:08:23;;;;;;;120.80;43.15;;;;;;;6.94;100.00;103763.72;5277489;28;20059;-75
2023/02/10 11:10:57;;;;;;;114.85;43.58;;;;;;;7.06;100.00;103759.59;5277081;28;20095;-76
2023/02/10 11:13:30;;;;;;;121.28;44.15;;;;;;;7.09;100.00;103763.00;5286363;28;20023;-74
2023/02/10 11:16:02;;;;;;;112.50;44.15;;;;;;;7.05;100.00;103760.53;5286039;28;20023;-74
2023/02/10 11:18:33;;;;;;;120.53;45.40;;;;;;;6.70;100.00;103745.22;5271960;28;20028;-75
2023/02/10 11:21:08;;;;;;;121.28;46.25;;;;;;;6.56;100.00;103744.97;5272735;28;20047;-75
2023/02/10 11:23:52;;;;;;;124.78;49.95;;;;;;;6.96;100.00;103751.16;5270429;28;20102;-74
2023/02/10 11:26:25;;;;;;;128.40;44.22;;;;;;;7.17;100.00;103749.25;5264976;28;20028;-74
2023/02/10 11:28:56;;;;;;;131.25;45.42;;;;;;;7.15;100.00;103738.66;5270939;28;20027;-74
2023/02/10 11:31:32;;;;;;;127.40;46.00;;;;;;;7.18;100.00;103737.66;5272505;28;20020;-74